Time;durP1;ratioP1;P1;durP2;ratioP2;P2;SDS_P1;SDS_P2;PMS_P1;PMS_P2;Temp;Humidity;BMP_temperature;BMP_pressure;BME280_temperature;BME280_humidity;BME280_pressure;Samples;Min_cycle;Max_cycle;Signal;HPM_P1;HPM_P2
2023/03/07 00:00:59;;;;;;;30.58;19.45;;;16.90;99.90;;;;;;4590324;19;20491;-27
2023/03/07 00:02:31;;;;;;;29.48;18.38;;;16.80;99.90;;;;;;4590232;19;20598;-29
2023/03/07 00:04:03;;;;;;;33.90;20.88;;;16.80;99.90;;;;;;4590258;19;20029;-27
2023/03/07 00:05:34;;;;;;;28.80;19.95;;;16.80;99.90;;;;;;4589281;19;20020;-28
2023/03/07 00:07:07;;;;;;;32.10;19.90;;;16.80;99.90;;;;;;4588999;19;20022;-28
2023/03/07 00:08:39;;;;;;;29.42;19.10;;;16.80;99.90;;;;;;4589920;19;20022;-28
2023/03/07 00:10:13;;;;;;;31.65;19.58;;;16.80;99.90;;;;;;4590103;19;20030;-27
2023/03/07 00:11:44;;;;;;;31.52;20.67;;;16.80;99.90;;;;;;4589090;19;20386;-28
2023/03/07 00:13:16;;;;;;;29.38;20.50;;;16.80;99.90;;;;;;4587576;19;20078;-27
2023/03/07 00:14:48;;;;;;;30.20;19.15;;;16.70;99.90;;;;;;4590032;19;20374;-27
2023/03/07 00:16:21;;;;;;;29.85;20.05;;;16.70;99.90;;;;;;4590047;19;20003;-25
2023/03/07 00:17:53;;;;;;;29.83;19.05;;;16.70;99.90;;;;;;4590344;19;20022;-29
2023/03/07 00:19:26;;;;;;;30.33;19.95;;;16.70;99.90;;;;;;4590000;19;20007;-27
2023/03/07 00:21:04;;;;;;;32.65;19.60;;;16.70;99.90;;;;;;4589945;19;20011;-26
2023/03/07 00:22:36;;;;;;;29.77;19.30;;;16.70;99.90;;;;;;4588868;19;20346;-26
2023/03/07 00:24:08;;;;;;;31.75;21.02;;;16.60;99.90;;;;;;4589353;19;20006;-28
2023/03/07 00:25:40;;;;;;;30.38;20.48;;;16.60;99.90;;;;;;4588716;19;20038;-25
2023/03/07 00:27:11;;;;;;;30.85;19.75;;;16.60;99.90;;;;;;4588635;19;20381;-25
2023/03/07 00:28:46;;;;;;;30.50;18.88;;;16.60;99.90;;;;;;4589675;19;20014;-27
2023/03/07 00:30:17;;;;;;;30.17;18.15;;;16.60;99.90;;;;;;4589761;19;20031;-28
2023/03/07 00:31:48;;;;;;;30.92;18.60;;;16.60;99.90;;;;;;4587518;19;20511;-28
2023/03/07 00:33:20;;;;;;;26.55;18.25;;;16.60;99.90;;;;;;4588620;19;20052;-28
2023/03/07 00:34:52;;;;;;;28.95;17.95;;;16.60;99.90;;;;;;4589239;19;20010;-26
2023/03/07 00:36:25;;;;;;;27.10;17.42;;;16.60;99.90;;;;;;4589502;19;20010;-28
2023/03/07 00:37:55;;;;;;;28.90;18.88;;;16.50;99.90;;;;;;4589754;19;20007;-28
2023/03/07 00:39:26;;;;;;;29.05;18.88;;;16.60;99.90;;;;;;4588746;19;20066;-27
2023/03/07 00:40:59;;;;;;;28.38;17.83;;;16.50;99.90;;;;;;4589875;19;20531;-25
2023/03/07 00:42:30;;;;;;;24.45;17.58;;;16.50;99.90;;;;;;4589439;19;20014;-26
2023/03/07 00:44:02;;;;;;;25.92;17.42;;;16.50;99.90;;;;;;4589564;19;20011;-28
2023/03/07 00:45:35;;;;;;;24.92;17.20;;;16.50;99.90;;;;;;4588420;19;20014;-27
2023/03/07 00:47:08;;;;;;;26.42;16.85;;;16.50;99.90;;;;;;4589498;19;20006;-26
2023/03/07 00:48:39;;;;;;;28.77;17.95;;;16.50;99.90;;;;;;4589459;19;20038;-26
2023/03/07 00:50:10;;;;;;;27.02;16.73;;;16.50;99.90;;;;;;4589628;19;20479;-28
2023/03/07 00:51:43;;;;;;;28.63;17.55;;;16.40;99.90;;;;;;4589308;19;20014;-30
2023/03/07 00:53:14;;;;;;;26.70;17.17;;;16.40;99.90;;;;;;4589768;19;20011;-26
2023/03/07 00:54:46;;;;;;;25.33;16.85;;;16.40;99.90;;;;;;4589425;19;20399;-28
2023/03/07 00:56:24;;;;;;;26.90;18.15;;;16.40;99.90;;;;;;4587919;19;20031;-27
2023/03/07 00:57:57;;;;;;;24.92;16.33;;;16.40;99.90;;;;;;4589131;19;20367;-27
2023/03/07 00:59:28;;;;;;;25.42;16.00;;;16.40;99.90;;;;;;4589593;19;20321;-28
2023/03/07 01:00:59;;;;;;;23.80;16.02;;;16.40;99.90;;;;;;4589279;19;20023;-27
2023/03/07 01:02:31;;;;;;;25.75;17.10;;;16.40;99.90;;;;;;4589285;19;20082;-27
2023/03/07 01:04:03;;;;;;;24.15;16.58;;;16.40;99.90;;;;;;4589456;19;20010;-27
2023/03/07 01:05:38;;;;;;;24.77;16.35;;;16.40;99.90;;;;;;4589429;19;20034;-26
2023/03/07 01:07:09;;;;;;;26.73;16.20;;;16.40;99.90;;;;;;4589232;19;20007;-28
2023/03/07 01:08:41;;;;;;;23.17;15.63;;;16.40;99.90;;;;;;4589108;19;20006;-27
2023/03/07 01:10:14;;;;;;;25.63;15.45;;;16.40;99.90;;;;;;4589233;19;20022;-27
2023/03/07 01:11:46;;;;;;;22.17;14.80;;;16.30;99.90;;;;;;4589015;19;20011;-26
2023/03/07 01:13:19;;;;;;;20.45;14.20;;;16.30;99.90;;;;;;4588101;19;20011;-25
2023/03/07 01:14:52;;;;;;;23.42;15.38;;;16.30;99.90;;;;;;4588035;19;20019;-29
2023/03/07 01:16:26;;;;;;;21.52;15.15;;;16.30;99.90;;;;;;4588751;19;20052;-27
2023/03/07 01:17:59;;;;;;;25.80;15.17;;;16.30;99.90;;;;;;4588904;19;20022;-28
2023/03/07 01:19:32;;;;;;;25.23;15.05;;;16.30;99.90;;;;;;4589038;19;20013;-26
2023/03/07 01:21:10;;;;;;;21.67;15.98;;;16.30;99.90;;;;;;4588228;19;20018;-28
2023/03/07 01:22:44;;;;;;;22.20;14.40;;;16.30;99.90;;;;;;4589264;19;20018;-28
2023/03/07 01:24:16;;;;;;;22.50;15.10;;;16.30;99.90;;;;;;4589424;19;20010;-26
2023/03/07 01:25:48;;;;;;;24.33;15.18;;;16.30;99.90;;;;;;4593024;19;20017;-27
2023/03/07 01:27:19;;;;;;;21.75;14.70;;;16.30;99.90;;;;;;4593740;19;20078;-26
2023/03/07 01:28:51;;;;;;;23.65;15.30;;;16.30;99.90;;;;;;4593868;19;20010;-27
2023/03/07 01:30:23;;;;;;;24.45;15.55;;;16.30;99.90;;;;;;4593389;19;20025;-25
2023/03/07 01:31:55;;;;;;;19.37;14.17;;;16.30;99.90;;;;;;4593455;19;20019;-27
2023/03/07 01:33:27;;;;;;;22.85;15.82;;;16.30;99.90;;;;;;4592741;19;20022;-27
2023/03/07 01:34:59;;;;;;;;;;;16.20;99.90;;;;;;4593781;19;20086;-29
2023/03/07 01:36:32;;;;;;;22.67;14.73;;;16.20;99.90;;;;;;4592534;19;19930;-29
2023/03/07 01:38:04;;;;;;;20.75;14.27;;;16.20;99.90;;;;;;4592267;19;20040;-30
2023/03/07 01:39:35;;;;;;;23.65;14.80;;;16.20;99.90;;;;;;4592478;19;20039;-26
2023/03/07 01:41:10;;;;;;;22.90;14.50;;;16.20;99.90;;;;;;4593288;19;20014;-24
2023/03/07 01:42:42;;;;;;;21.73;14.95;;;16.20;99.90;;;;;;4593081;19;20015;-26
2023/03/07 01:44:21;;;;;;;21.60;13.90;;;16.20;99.90;;;;;;4593212;19;20010;-27
2023/03/07 01:46:29;;;;;;;21.45;14.18;;;16.20;99.90;;;;;;4593450;19;20355;-26
2023/03/07 01:48:00;;;;;;;20.83;14.03;;;16.20;99.90;;;;;;4590934;19;20015;-26
2023/03/07 01:49:34;;;;;;;22.20;14.90;;;16.10;99.90;;;;;;4590847;19;20019;-29
2023/03/07 01:51:06;;;;;;;21.55;14.15;;;16.10;99.90;;;;;;4590862;19;20014;-28
2023/03/07 01:52:44;;;;;;;21.60;14.52;;;16.20;99.90;;;;;;4590813;19;20014;-28
2023/03/07 01:54:17;;;;;;;21.47;15.13;;;16.10;99.90;;;;;;4590845;19;20475;-26
2023/03/07 01:55:50;;;;;;;20.23;14.15;;;16.20;99.90;;;;;;4590874;19;20007;-27
2023/03/07 01:57:26;;;;;;;19.60;13.60;;;16.20;99.90;;;;;;4589262;19;20022;-27
2023/03/07 01:59:00;;;;;;;22.70;14.27;;;16.20;99.90;;;;;;4589238;19;20068;-25
2023/03/07 02:00:35;;;;;;;19.50;13.43;;;16.10;99.90;;;;;;4591082;19;20452;-26
2023/03/07 02:02:10;;;;;;;18.92;13.38;;;16.10;99.90;;;;;;4590882;19;20003;-27
2023/03/07 02:04:20;;;;;;;22.80;14.25;;;16.10;99.90;;;;;;4590635;19;20007;-28
2023/03/07 02:05:55;;;;;;;20.70;13.43;;;16.10;99.90;;;;;;4590644;19;20010;-26
2023/03/07 02:07:30;;;;;;;22.53;14.70;;;16.10;99.90;;;;;;4590504;19;20039;-26
2023/03/07 02:09:01;;;;;;;19.92;13.40;;;16.10;99.90;;;;;;4590415;19;20454;-28
2023/03/07 02:10:34;;;;;;;19.33;13.23;;;16.10;99.90;;;;;;4590797;19;20010;-28
2023/03/07 02:12:06;;;;;;;19.90;13.65;;;16.10;99.90;;;;;;4590540;19;20010;-27
2023/03/07 02:13:39;;;;;;;19.00;12.87;;;16.10;99.90;;;;;;4590273;19;20025;-26
2023/03/07 02:15:11;;;;;;;19.08;13.23;;;16.10;99.90;;;;;;4590431;19;20445;-25
2023/03/07 02:16:42;;;;;;;19.58;13.65;;;16.10;99.90;;;;;;4589727;19;20025;-26
2023/03/07 02:18:17;;;;;;;18.40;13.20;;;16.10;99.90;;;;;;4590204;19;20014;-28
2023/03/07 02:20:19;;;;;;;18.55;12.40;;;16.10;99.90;;;;;;4590172;19;20349;-25
2023/03/07 02:22:05;;;;;;;17.20;12.43;;;16.10;99.90;;;;;;4590455;19;20031;-25
2023/03/07 02:23:46;;;;;;;19.45;12.75;;;16.10;99.90;;;;;;4590250;19;20023;-28
2023/03/07 02:25:41;;;;;;;19.53;13.07;;;16.00;99.90;;;;;;4591368;19;20041;-29
2023/03/07 02:27:13;;;;;;;18.40;12.15;;;16.10;99.90;;;;;;4591426;19;20082;-27
2023/03/07 02:28:46;;;;;;;19.17;12.95;;;16.00;99.90;;;;;;4591259;19;20435;-27
2023/03/07 02:30:18;;;;;;;17.60;12.82;;;16.00;99.90;;;;;;4591305;19;20010;-29
2023/03/07 02:31:50;;;;;;;19.48;13.35;;;16.00;99.90;;;;;;4591038;19;20011;-25
2023/03/07 02:33:23;;;;;;;17.83;12.43;;;16.00;99.90;;;;;;4591454;19;20002;-29
2023/03/07 02:34:55;;;;;;;17.53;12.47;;;16.00;99.90;;;;;;4592161;19;20022;-30
2023/03/07 02:36:29;;;;;;;17.80;12.45;;;16.00;99.90;;;;;;4590041;19;20032;-28
2023/03/07 02:38:00;;;;;;;17.88;11.93;;;16.00;99.90;;;;;;4592210;19;20043;-27
2023/03/07 02:39:32;;;;;;;16.52;12.30;;;16.00;99.90;;;;;;4591170;19;20006;-30
2023/03/07 02:41:05;;;;;;;17.07;12.57;;;16.00;99.90;;;;;;4591657;19;20011;-28
2023/03/07 02:42:39;;;;;;;16.30;11.93;;;15.90;99.90;;;;;;4592205;19;20011;-28
2023/03/07 02:44:11;;;;;;;18.15;12.60;;;16.00;99.90;;;;;;4590927;19;20015;-26
2023/03/07 02:45:44;;;;;;;16.75;11.68;;;16.00;99.90;;;;;;4592064;19;20452;-25
2023/03/07 02:47:15;;;;;;;19.77;11.27;;;16.00;99.90;;;;;;4590893;19;20018;-27
2023/03/07 02:48:46;;;;;;;16.90;12.00;;;15.90;99.90;;;;;;4591692;19;20023;-25
2023/03/07 02:50:19;;;;;;;18.25;11.85;;;15.90;99.90;;;;;;4591734;19;20017;-27
2023/03/07 02:51:56;;;;;;;17.92;11.60;;;15.90;99.90;;;;;;4590844;19;20006;-30
2023/03/07 02:53:29;;;;;;;16.85;11.38;;;15.90;99.90;;;;;;4591673;19;20435;-28
2023/03/07 02:55:02;;;;;;;20.08;12.60;;;15.90;99.90;;;;;;4592174;19;20666;-26
2023/03/07 02:56:34;;;;;;;17.00;11.98;;;15.90;99.90;;;;;;4591560;19;20021;-27
2023/03/07 02:58:06;;;;;;;16.52;12.00;;;15.90;99.90;;;;;;4591563;19;20007;-26
2023/03/07 02:59:37;;;;;;;16.30;11.60;;;15.90;99.90;;;;;;4592066;19;20022;-28
2023/03/07 03:01:10;;;;;;;19.37;12.87;;;15.90;99.90;;;;;;4591833;19;20538;-26
2023/03/07 03:02:42;;;;;;;17.05;11.90;;;15.90;99.90;;;;;;4591863;19;20023;-28
2023/03/07 03:04:15;;;;;;;18.63;13.50;;;15.90;99.90;;;;;;4590447;19;20048;-26
2023/03/07 03:05:47;;;;;;;17.00;11.30;;;15.90;99.90;;;;;;4591384;19;20093;-25
2023/03/07 03:07:19;;;;;;;17.95;12.05;;;15.90;99.90;;;;;;4591344;19;20099;-27
2023/03/07 03:08:50;;;;;;;17.85;12.27;;;15.90;99.90;;;;;;4591669;19;20417;-28
2023/03/07 03:10:21;;;;;;;15.75;11.82;;;15.90;99.90;;;;;;4591364;19;20477;-26
2023/03/07 03:11:53;;;;;;;17.37;12.00;;;15.90;99.90;;;;;;4591384;19;20018;-28
2023/03/07 03:13:26;;;;;;;15.63;11.57;;;15.90;99.90;;;;;;4590510;19;20006;-28
2023/03/07 03:14:57;;;;;;;;;;;15.90;99.90;;;;;;4594127;19;20024;-28
2023/03/07 03:16:28;;;;;;;18.80;12.57;;;15.80;99.90;;;;;;4591058;19;20269;-25
2023/03/07 03:17:59;;;;;;;17.10;12.05;;;15.80;99.90;;;;;;4593835;19;20441;-28
2023/03/07 03:19:30;;;;;;;16.80;10.85;;;15.80;99.90;;;;;;4591527;19;20354;-25
2023/03/07 03:21:09;;;;;;;18.43;12.07;;;15.80;99.90;;;;;;4591603;19;20003;-28
2023/03/07 03:22:40;;;;;;;18.30;12.67;;;15.80;99.90;;;;;;4590122;19;20010;-25
2023/03/07 03:24:12;;;;;;;17.00;11.77;;;15.80;99.90;;;;;;4590070;19;20010;-26
2023/03/07 03:25:45;;;;;;;15.60;10.33;;;15.80;99.90;;;;;;4590568;19;20011;-27
2023/03/07 03:27:17;;;;;;;16.57;11.50;;;15.80;99.90;;;;;;4591626;19;20017;-26
2023/03/07 03:28:52;;;;;;;15.97;11.30;;;15.80;99.90;;;;;;4591173;19;20010;-27
2023/03/07 03:30:27;;;;;;;17.67;11.70;;;15.80;99.90;;;;;;4588886;19;20040;-26
2023/03/07 03:31:58;;;;;;;16.40;11.77;;;15.80;99.90;;;;;;4588762;19;20051;-27
2023/03/07 03:33:31;;;;;;;19.13;12.77;;;15.80;99.90;;;;;;4588677;19;20018;-27
2023/03/07 03:35:03;;;;;;;14.43;10.93;;;15.80;99.90;;;;;;4588815;19;20585;-27
2023/03/07 03:36:34;;;;;;;;;;;15.80;99.90;;;;;;4589427;19;20013;-28
2023/03/07 03:38:05;;;;;;;17.30;11.43;;;15.80;99.90;;;;;;4589002;19;20274;-27
2023/03/07 03:39:38;;;;;;;15.50;11.18;;;15.80;99.90;;;;;;4588562;19;20010;-29
2023/03/07 03:41:12;;;;;;;17.33;12.17;;;15.80;99.90;;;;;;4588788;19;20010;-27
2023/03/07 03:42:43;;;;;;;17.27;12.35;;;15.80;99.90;;;;;;4588552;19;20373;-26
2023/03/07 03:44:14;;;;;;;18.25;11.57;;;15.80;99.90;;;;;;4588660;19;20010;-26
2023/03/07 03:45:55;;;;;;;17.50;11.55;;;15.70;99.90;;;;;;4588568;19;20618;-29
2023/03/07 03:47:28;;;;;;;16.53;11.47;;;15.70;99.90;;;;;;4588161;19;20206;-27
2023/03/07 03:49:02;;;;;;;15.63;11.37;;;15.70;99.90;;;;;;4588389;19;20014;-28
2023/03/07 03:50:33;;;;;;;17.80;12.23;;;15.70;99.90;;;;;;4588877;19;20517;-25
2023/03/07 03:52:06;;;;;;;20.03;11.57;;;15.70;99.90;;;;;;4588363;19;20546;-28
2023/03/07 03:53:38;;;;;;;17.63;11.40;;;15.70;99.90;;;;;;4588753;19;20024;-27
2023/03/07 04:30:14;;;;;;;16.03;11.77;;;15.60;99.90;;;;;;4589026;19;20002;-28
2023/03/07 04:31:45;;;;;;;;;;;15.60;99.90;;;;;;4591021;19;20017;-26
2023/03/07 04:33:20;;;;;;;16.17;10.03;;;15.60;99.90;;;;;;4589386;19;19915;-27
2023/03/07 04:34:53;;;;;;;13.43;10.93;;;15.60;99.90;;;;;;4588979;19;20010;-28
2023/03/07 04:36:25;;;;;;;13.53;8.57;;;15.60;99.90;;;;;;4589442;19;20013;-25
2023/03/07 04:37:57;;;;;;;14.40;9.35;;;15.60;99.90;;;;;;4588578;19;20397;-25
2023/03/07 04:39:28;;;;;;;12.60;8.80;;;15.50;99.90;;;;;;4589442;19;20013;-28
2023/03/07 04:40:59;;;;;;;13.85;9.80;;;15.60;99.90;;;;;;4589782;19;20106;-27
2023/03/07 04:42:30;;;;;;;12.48;8.73;;;15.50;99.90;;;;;;4589629;19;20026;-27
2023/03/07 04:44:03;;;;;;;14.47;8.93;;;15.60;99.90;;;;;;4589427;19;20010;-28
2023/03/07 04:45:36;;;;;;;12.77;8.53;;;15.60;99.90;;;;;;4589438;19;20018;-30
2023/03/07 04:47:09;;;;;;;12.30;8.20;;;15.60;99.90;;;;;;4589979;19;20898;-26
2023/03/07 04:48:41;;;;;;;11.73;8.43;;;15.70;99.90;;;;;;4589800;19;20035;-27
2023/03/07 04:50:12;;;;;;;12.70;7.82;;;15.70;99.90;;;;;;4589413;19;20021;-27
2023/03/07 04:51:44;;;;;;;14.70;8.68;;;15.80;99.90;;;;;;4589559;19;20011;-25
2023/03/07 04:53:17;;;;;;;21.23;8.45;;;15.80;99.90;;;;;;4589383;19;20546;-28
2023/03/07 04:54:49;;;;;;;12.50;8.30;;;15.80;99.90;;;;;;4588600;19;20010;-27
2023/03/07 04:56:20;;;;;;;12.73;7.85;;;15.90;99.90;;;;;;4588275;19;20033;-26
2023/03/07 04:57:52;;;;;;;14.63;8.60;;;15.90;99.90;;;;;;4587592;19;20015;-29
2023/03/07 04:59:23;;;;;;;;;;;15.90;99.90;;;;;;4586279;19;20014;-27
2023/03/07 05:00:57;;;;;;;12.47;7.90;;;15.90;99.90;;;;;;4588846;19;19970;-30
2023/03/07 05:02:28;;;;;;;11.90;7.68;;;16.00;99.90;;;;;;4588146;19;20018;-26
2023/03/07 05:04:01;;;;;;;11.70;7.33;;;16.00;99.90;;;;;;4588787;19;20022;-27
2023/03/07 05:05:34;;;;;;;12.37;7.27;;;16.00;99.90;;;;;;4588547;19;20066;-26
2023/03/07 05:07:05;;;;;;;11.45;8.02;;;16.10;99.90;;;;;;4588900;19;20011;-26
2023/03/07 05:08:38;;;;;;;9.77;6.57;;;16.10;99.90;;;;;;4589409;19;20019;-24
2023/03/07 05:10:09;;;;;;;11.75;7.70;;;16.10;99.90;;;;;;4589363;19;20007;-26
2023/03/07 05:11:41;;;;;;;13.02;8.20;;;16.20;99.90;;;;;;4587707;19;20019;-27
2023/03/07 05:13:13;;;;;;;11.00;7.22;;;16.30;99.90;;;;;;4589217;19;20014;-27
2023/03/07 05:14:44;;;;;;;11.32;6.90;;;16.40;99.90;;;;;;4589828;19;20017;-25
2023/03/07 05:16:16;;;;;;;10.48;7.00;;;16.50;99.90;;;;;;4589245;19;20045;-26
2023/03/07 05:17:48;;;;;;;10.57;7.53;;;16.60;99.90;;;;;;4588765;19;20484;-24
2023/03/07 05:19:19;;;;;;;10.77;6.60;;;16.70;99.90;;;;;;4589380;19;20031;-26
2023/03/07 05:20:50;;;;;;;9.82;6.90;;;16.90;99.90;;;;;;4586056;19;20031;-28
2023/03/07 05:22:21;;;;;;;;;;;17.10;99.90;;;;;;4588347;19;20347;-30
2023/03/07 05:23:53;;;;;;;11.82;7.05;;;17.30;99.90;;;;;;4587321;19;19941;-26
2023/03/07 05:25:25;;;;;;;10.05;6.88;;;17.50;99.90;;;;;;4587433;19;20047;-30
2023/03/07 05:27:00;;;;;;;10.40;7.25;;;17.60;99.90;;;;;;4587345;19;20014;-27
2023/03/07 05:28:31;;;;;;;10.02;6.80;;;17.80;99.90;;;;;;4585334;19;20015;-27
2023/03/07 05:30:02;;;;;;;10.27;7.38;;;17.90;99.90;;;;;;4589068;19;20039;-27
2023/03/07 05:31:34;;;;;;;;;;;18.00;99.90;;;;;;4589203;19;20010;-25
2023/03/07 05:33:06;;;;;;;;;;;18.10;99.90;;;;;;4589086;19;19932;-28
2023/03/07 05:34:37;;;;;;;12.38;7.90;;;18.20;99.90;;;;;;4588935;19;19945;-26
2023/03/07 05:36:09;;;;;;;;;;;18.20;99.90;;;;;;4588021;19;20022;-26
2023/03/07 05:37:40;;;;;;;11.13;7.90;;;18.20;99.90;;;;;;4586457;19;20330;-27
2023/03/07 05:39:11;;;;;;;12.05;8.13;;;18.30;99.90;;;;;;4586985;19;20007;-27
2023/03/07 05:40:43;;;;;;;12.63;9.00;;;18.30;99.90;;;;;;4589912;19;20070;-26
2023/03/07 05:42:15;;;;;;;17.55;9.77;;;18.30;99.90;;;;;;4587912;19;20006;-27
2023/03/07 05:43:46;;;;;;;10.80;8.73;;;18.30;99.90;;;;;;4588439;19;20010;-27
2023/03/07 05:45:20;;;;;;;46.58;40.78;;;18.10;97.30;;;;;;4588385;19;20014;-24
2023/03/07 05:46:51;;;;;;;31.23;23.97;;;16.50;87.40;;;;;;4587985;19;20007;-33
2023/03/07 05:48:22;;;;;;;33.45;24.83;;;15.20;87.70;;;;;;4586493;19;20672;-25
2023/03/07 05:49:54;;;;;;;39.10;29.52;;;14.20;89.00;;;;;;4587202;19;20014;-25
2023/03/07 05:51:25;;;;;;;38.08;29.25;;;13.50;90.00;;;;;;4587323;19;20031;-28
2023/03/07 05:52:56;;;;;;;28.27;22.65;;;12.90;90.40;;;;;;4586969;19;20011;-31
2023/03/07 05:54:28;;;;;;;29.27;23.20;;;12.60;90.70;;;;;;4590351;19;20022;-28
2023/03/07 05:56:00;;;;;;;34.07;28.47;;;12.20;90.90;;;;;;4588216;19;20535;-26
2023/03/07 05:57:32;;;;;;;32.00;23.73;;;12.00;91.10;;;;;;4587197;19;20425;-28
2023/03/07 05:59:06;;;;;;;30.42;21.73;;;11.90;91.20;;;;;;4586101;19;20015;-27
2023/03/07 06:00:38;;;;;;;27.03;21.23;;;11.80;92.10;;;;;;4588357;19;20037;-26
2023/03/07 06:02:10;;;;;;;26.20;20.27;;;12.00;92.00;;;;;;4588150;19;20441;-28
2023/03/07 06:04:01;;;;;;;29.77;21.17;;;12.20;91.80;;;;;;4588569;19;20425;-25
2023/03/07 06:05:32;;;;;;;31.60;24.00;;;12.10;91.50;;;;;;4587932;19;20014;-24
2023/03/07 06:07:03;;;;;;;37.85;27.27;;;11.90;91.20;;;;;;4587332;19;20488;-27
2023/03/07 06:08:36;;;;;;;34.03;23.20;;;11.70;91.30;;;;;;4585838;19;20537;-29
2023/03/07 06:10:10;;;;;;;32.17;23.65;;;11.60;91.30;;;;;;4588113;19;20437;-27
2023/03/07 06:11:43;;;;;;;40.20;26.67;;;11.40;91.40;;;;;;4591404;19;20070;-33
2023/03/07 06:13:18;;;;;;;93.67;64.23;;;11.30;91.50;;;;;;4590602;19;20491;-26
2023/03/07 06:14:50;;;;;;;67.63;49.00;;;11.20;91.60;;;;;;4592496;19;20480;-23
2023/03/07 06:16:22;;;;;;;35.33;26.50;;;11.20;91.80;;;;;;4592602;19;20433;-28
2023/03/07 06:17:55;;;;;;;33.93;23.60;;;11.10;91.90;;;;;;4590888;19;20433;-23
2023/03/07 06:19:28;;;;;;;34.40;25.60;;;11.10;91.90;;;;;;4592362;19;20458;-28
2023/03/07 06:21:03;;;;;;;38.10;28.27;;;11.00;91.80;;;;;;4592600;19;20421;-25
2023/03/07 06:22:37;;;;;;;42.23;28.33;;;11.00;91.80;;;;;;4590358;19;21052;-25
2023/03/07 06:24:09;;;;;;;41.93;29.07;;;11.00;91.90;;;;;;4591243;19;20417;-28
2023/03/07 06:25:40;;;;;;;40.47;29.25;;;11.00;92.00;;;;;;4592012;19;20429;-26
2023/03/07 06:27:11;;;;;;;41.50;29.13;;;11.00;92.00;;;;;;4592540;19;20014;-28
2023/03/07 06:28:44;;;;;;;44.30;31.20;;;10.90;92.00;;;;;;4592579;19;20015;-24
2023/03/07 06:30:16;;;;;;;51.92;34.10;;;11.00;92.10;;;;;;4592437;19;20441;-27
2023/03/07 06:31:48;;;;;;;39.25;27.80;;;10.90;92.00;;;;;;4592365;19;20013;-26
2023/03/07 06:33:19;;;;;;;;;;;10.80;92.00;;;;;;4592511;19;20564;-27
2023/03/07 06:34:51;;;;;;;32.20;23.23;;;10.80;92.20;;;;;;4592529;19;19925;-28
2023/03/07 06:36:22;;;;;;;;;;;10.80;92.10;;;;;;4591858;19;20421;-31
2023/03/07 06:37:54;;;;;;;37.33;23.60;;;10.80;92.20;;;;;;4590294;19;19915;-26
2023/03/07 06:39:25;;;;;;;38.28;27.23;;;10.80;92.10;;;;;;4592488;19;20476;-27
2023/03/07 06:40:58;;;;;;;33.77;23.30;;;10.70;92.00;;;;;;4591961;19;20472;-30
2023/03/07 06:42:30;;;;;;;;;;;10.70;92.10;;;;;;4592463;19;20464;-33
2023/03/07 06:44:01;;;;;;;35.23;22.73;;;10.70;92.20;;;;;;4590805;19;19923;-24
2023/03/07 06:45:35;;;;;;;32.80;23.53;;;10.80;92.20;;;;;;4591634;19;20516;-25
2023/03/07 06:47:08;;;;;;;30.13;21.67;;;10.90;92.40;;;;;;4592611;19;20473;-29
2023/03/07 06:48:40;;;;;;;32.43;21.90;;;10.80;92.10;;;;;;4593222;19;21231;-27
2023/03/07 06:50:12;;;;;;;31.23;23.10;;;10.80;91.90;;;;;;4592096;19;20489;-28
2023/03/07 06:51:43;;;;;;;34.47;24.08;;;10.80;92.20;;;;;;4593158;19;20456;-28
2023/03/07 06:53:14;;;;;;;30.67;21.67;;;10.70;92.40;;;;;;4591902;19;20017;-25
2023/03/07 06:54:46;;;;;;;30.45;20.38;;;10.70;92.20;;;;;;4592830;19;20017;-27
2023/03/07 06:56:17;;;;;;;29.98;22.67;;;10.70;92.00;;;;;;4592781;19;20359;-25
2023/03/07 06:57:49;;;;;;;27.13;21.45;;;10.60;92.10;;;;;;4593058;19;20029;-30
2023/03/07 06:59:20;;;;;;;31.70;22.13;;;10.70;92.10;;;;;;4591233;19;20022;-26
2023/03/07 07:00:52;;;;;;;30.95;23.20;;;10.60;92.10;;;;;;4593725;19;20460;-29
2023/03/07 07:02:23;;;;;;;29.45;22.33;;;10.60;92.00;;;;;;4594012;19;20483;-27
2023/03/07 07:03:55;;;;;;;31.60;25.27;;;10.70;92.20;;;;;;4593867;19;20025;-24
2023/03/07 07:05:27;;;;;;;35.95;25.15;;;10.70;92.20;;;;;;4590600;19;20440;-25
2023/03/07 07:06:58;;;;;;;32.55;22.80;;;10.70;92.20;;;;;;4593011;19;20476;-25
2023/03/07 07:08:29;;;;;;;31.90;24.13;;;10.70;92.40;;;;;;4591633;19;20077;-24
2023/03/07 07:10:01;;;;;;;35.53;25.00;;;10.70;92.30;;;;;;4590311;19;20093;-25
2023/03/07 07:11:32;;;;;;;36.40;25.75;;;10.70;92.40;;;;;;4591260;19;20037;-26
2023/03/07 07:13:03;;;;;;;31.60;22.85;;;10.70;92.30;;;;;;4592892;19;20025;-24
2023/03/07 07:14:36;;;;;;;36.17;23.90;;;10.70;92.20;;;;;;4591720;19;20013;-26
2023/03/07 07:16:07;;;;;;;33.40;25.75;;;10.60;92.10;;;;;;4591437;19;20455;-25
2023/03/07 07:17:39;;;;;;;36.67;26.23;;;10.70;92.20;;;;;;4590260;19;20010;-24
2023/03/07 07:19:11;;;;;;;34.80;24.03;;;10.70;92.60;;;;;;4591163;19;21001;-26
2023/03/07 07:20:42;;;;;;;37.08;26.60;;;10.60;92.20;;;;;;4593522;19;20453;-24
2023/03/07 07:22:16;;;;;;;36.88;25.90;;;10.60;92.10;;;;;;4590541;19;20010;-26
2023/03/07 07:23:49;;;;;;;41.63;34.83;;;10.60;92.30;;;;;;4590346;19;20007;-24
2023/03/07 07:25:20;;;;;;;40.22;34.85;;;10.60;92.20;;;;;;4590629;19;20436;-28
2023/03/07 07:26:52;;;;;;;55.55;44.22;;;10.60;92.20;;;;;;4591270;19;20506;-26
2023/03/07 07:28:24;;;;;;;40.07;28.40;;;10.70;92.30;;;;;;4591429;19;20011;-24
2023/03/07 07:29:56;;;;;;;34.10;23.73;;;10.70;92.60;;;;;;4590296;19;20472;-25
2023/03/07 07:31:28;;;;;;;32.87;23.53;;;10.70;92.40;;;;;;4591314;19;20019;-25
2023/03/07 07:33:01;;;;;;;34.17;23.70;;;10.60;92.30;;;;;;4590937;19;20433;-24
2023/03/07 07:34:34;;;;;;;63.30;40.13;;;10.60;92.60;;;;;;4589443;19;20811;-27
2023/03/07 07:36:06;;;;;;;65.90;38.35;;;10.60;92.50;;;;;;4591141;19;20531;-24
2023/03/07 07:37:37;;;;;;;;;;;10.60;92.50;;;;;;4591138;19;20041;-25
2023/03/07 07:39:11;;;;;;;54.93;33.73;;;10.70;92.70;;;;;;4590942;19;19978;-26
2023/03/07 07:40:43;;;;;;;50.03;30.38;;;10.70;92.50;;;;;;4589749;19;20433;-26
2023/03/07 07:42:16;;;;;;;41.13;26.77;;;10.80;92.80;;;;;;4590443;19;20238;-26
2023/03/07 07:43:51;;;;;;;73.93;47.30;;;10.80;92.70;;;;;;4590828;19;20482;-26
2023/03/07 07:45:24;;;;;;;62.17;37.50;;;10.80;92.60;;;;;;4589795;19;20021;-26
2023/03/07 07:46:57;;;;;;;40.10;27.13;;;10.70;92.60;;;;;;4589808;19;20491;-26
2023/03/07 07:48:28;;;;;;;50.10;31.92;;;10.70;92.70;;;;;;4589644;19;20452;-25
2023/03/07 07:50:00;;;;;;;38.70;26.73;;;10.70;92.70;;;;;;4591563;19;20505;-26
2023/03/07 07:51:32;;;;;;;33.30;24.60;;;10.70;93.00;;;;;;4590613;19;20461;-26
2023/03/07 07:53:03;;;;;;;36.47;25.83;;;10.80;93.10;;;;;;4592617;19;20018;-25
2023/03/07 07:54:35;;;;;;;32.20;25.02;;;10.80;93.10;;;;;;4592068;19;20824;-26
2023/03/07 07:56:07;;;;;;;37.55;27.30;;;10.80;93.00;;;;;;4591893;19;20010;-25
2023/03/07 07:57:42;;;;;;;33.83;25.03;;;10.80;92.90;;;;;;4592099;19;20011;-25
2023/03/07 07:59:14;;;;;;;41.67;28.83;;;10.80;92.90;;;;;;4589838;19;20473;-24
2023/03/07 08:00:45;;;;;;;40.72;28.10;;;10.80;92.90;;;;;;4593104;19;20457;-24
2023/03/07 08:02:18;;;;;;;35.10;26.53;;;10.80;93.00;;;;;;4592333;19;20389;-27
2023/03/07 08:03:50;;;;;;;46.97;34.63;;;10.80;93.10;;;;;;4592873;19;20497;-25
2023/03/07 08:05:21;;;;;;;45.05;35.15;;;10.90;93.20;;;;;;4590974;19;20479;-24
2023/03/07 08:06:53;;;;;;;39.15;26.90;;;10.90;93.30;;;;;;4590099;19;20010;-26
2023/03/07 08:08:25;;;;;;;38.43;27.57;;;10.90;93.20;;;;;;4592265;19;20010;-26
2023/03/07 08:09:57;;;;;;;37.10;25.77;;;10.80;93.30;;;;;;4590133;19;20470;-25
2023/03/07 08:11:28;;;;;;;34.70;25.25;;;10.90;93.40;;;;;;4590424;19;20468;-26
2023/03/07 08:13:00;;;;;;;40.92;28.08;;;10.90;93.30;;;;;;4591194;19;20022;-26
2023/03/07 08:14:33;;;;;;;37.60;27.20;;;10.80;93.10;;;;;;4592394;19;20006;-25
2023/03/07 08:16:07;;;;;;;;;;;10.90;93.30;;;;;;4593142;19;20492;-24
2023/03/07 08:17:39;;;;;;;35.87;22.87;;;10.90;93.40;;;;;;4591084;19;20257;-27
2023/03/07 08:19:13;;;;;;;34.40;24.73;;;10.90;93.30;;;;;;4592718;19;20438;-27
2023/03/07 08:20:44;;;;;;;37.22;26.10;;;10.80;93.40;;;;;;4591937;19;20464;-26
2023/03/07 08:22:15;;;;;;;34.30;24.70;;;10.80;93.50;;;;;;4592256;19;20373;-26
2023/03/07 08:23:47;;;;;;;32.45;23.63;;;10.80;93.50;;;;;;4592028;19;20018;-26
2023/03/07 08:25:21;;;;;;;35.53;26.00;;;10.80;93.50;;;;;;4592512;19;20066;-27
2023/03/07 08:26:52;;;;;;;34.43;24.73;;;10.80;93.60;;;;;;4591413;19;20025;-27
2023/03/07 08:28:24;;;;;;;35.78;25.85;;;10.80;93.50;;;;;;4592398;19;20482;-23
2023/03/07 08:29:55;;;;;;;36.63;24.80;;;10.80;93.60;;;;;;4592034;19;20503;-27